Time;durP1;ratioP1;P1;durP2;ratioP2;P2;SDS_P1;SDS_P2;PMS_P1;PMS_P2;Temp;Humidity;BMP_temperature;BMP_pressure;BME280_temperature;BME280_humidity;BME280_pressure;Samples;Min_cycle;Max_cycle;Signal;HPM_P1;HPM_P2
2022/12/04 00:01:18;;;;;;;30.27;10.68;;;28.90;90.20;;;;;;5146182;27;20022;-39
2022/12/04 00:03:44;;;;;;;;;;;28.90;90.30;;;;;;5146824;27;20050;-41
2022/12/04 00:06:16;;;;;;;28.48;8.77;;;28.90;90.30;;;;;;5146381;27;19907;-41
2022/12/04 00:08:44;;;;;;;24.63;7.90;;;28.90;90.30;;;;;;5146221;27;20076;-42
2022/12/04 00:11:11;;;;;;;;;;;28.90;90.30;;;;;;5146323;27;20027;-42
2022/12/04 00:13:38;;;;;;;;;;;28.90;90.30;;;;;;5146835;27;19911;-45
2022/12/04 00:16:17;;;;;;;21.13;6.03;;;28.90;90.30;;;;;;5146337;27;19904;-44
2022/12/04 00:18:44;;;;;;;14.23;5.25;;;28.90;90.40;;;;;;5146343;27;20080;-43
2022/12/04 00:21:13;;;;;;;17.35;5.65;;;28.90;90.40;;;;;;5146122;27;20021;-40
2022/12/04 00:23:40;;;;;;;11.40;5.25;;;28.90;90.40;;;;;;5146082;27;20031;-47
2022/12/04 00:26:15;;;;;;;12.43;4.95;;;28.90;90.40;;;;;;5145925;27;20043;-38
2022/12/04 00:28:44;;;;;;;13.38;4.93;;;28.90;90.40;;;;;;5145815;27;20019;-39
2022/12/04 00:31:14;;;;;;;19.88;6.03;;;28.90;90.40;;;;;;5145731;27;20076;-40
2022/12/04 00:33:41;;;;;;;19.25;7.00;;;28.90;90.40;;;;;;5120693;27;20059;-45
2022/12/04 00:36:12;;;;;;;15.00;5.05;;;28.90;90.50;;;;;;5104610;28;20032;-41
2022/12/04 00:38:39;;;;;;;16.88;4.70;;;28.80;90.60;;;;;;5104735;28;20073;-44
2022/12/04 00:41:08;;;;;;;20.05;4.95;;;28.80;90.60;;;;;;5104447;28;20035;-42
2022/12/04 00:43:35;;;;;;;24.48;4.43;;;28.80;90.90;;;;;;5116987;27;20111;-42
2022/12/04 00:46:01;;;;;;;17.73;5.00;;;28.70;90.90;;;;;;5110599;28;20019;-47
2022/12/04 00:48:28;;;;;;;22.70;5.20;;;28.70;91.20;;;;;;5124757;28;20031;-40
2022/12/04 00:50:57;;;;;;;13.18;4.68;;;28.60;91.10;;;;;;5130977;27;20303;-42
2022/12/04 00:53:23;;;;;;;14.38;4.63;;;28.60;91.20;;;;;;5145594;27;20027;-41
2022/12/04 00:55:50;;;;;;;9.95;4.13;;;28.60;91.20;;;;;;5145262;27;20098;-39
2022/12/04 00:58:16;;;;;;;17.05;4.28;;;28.60;91.30;;;;;;5145450;27;20191;-47
2022/12/04 01:00:43;;;;;;;16.38;3.63;;;28.50;91.30;;;;;;5145469;27;20042;-39
2022/12/04 01:03:10;;;;;;;21.70;4.05;;;28.50;91.20;;;;;;5137446;27;20023;-44
2022/12/04 01:05:41;;;;;;;15.32;4.00;;;28.50;91.20;;;;;;5113327;28;20403;-44
2022/12/04 01:08:10;;;;;;;13.25;4.20;;;28.50;91.20;;;;;;5104401;28;20357;-39
2022/12/04 01:10:39;;;;;;;14.00;3.63;;;28.60;91.20;;;;;;5116261;27;20094;-40
2022/12/04 01:13:05;;;;;;;7.18;3.08;;;28.60;91.20;;;;;;5144950;27;20035;-46
2022/12/04 01:15:32;;;;;;;6.78;3.05;;;28.60;91.10;;;;;;5144167;27;20113;-40
2022/12/04 01:17:59;;;;;;;11.05;4.72;;;28.60;91.20;;;;;;5143372;27;20034;-41
2022/12/04 01:20:25;;;;;;;15.52;7.50;;;28.60;91.10;;;;;;5143311;27;20033;-41
2022/12/04 01:22:52;;;;;;;19.73;10.10;;;28.60;91.10;;;;;;5143314;27;20019;-41
2022/12/04 01:25:18;;;;;;;23.35;14.95;;;28.60;91.10;;;;;;5143108;27;20092;-44
2022/12/04 01:27:45;;;;;;;27.55;18.08;;;28.60;91.10;;;;;;5124903;27;20246;-45
2022/12/04 01:30:12;;;;;;;25.35;16.50;;;28.60;91.10;;;;;;5143680;27;20065;-42
2022/12/04 01:32:38;;;;;;;32.17;21.60;;;28.60;91.10;;;;;;5125769;27;20095;-49
2022/12/04 01:35:05;;;;;;;46.63;34.72;;;28.60;91.10;;;;;;5113318;28;20364;-38
2022/12/04 01:37:32;;;;;;;41.42;32.75;;;28.60;91.10;;;;;;5105759;28;20028;-43
2022/12/04 01:40:00;;;;;;;36.22;25.23;;;28.60;91.00;;;;;;5113433;28;20024;-41
2022/12/04 01:42:27;;;;;;;28.23;20.05;;;28.60;91.00;;;;;;5104077;28;20032;-42
2022/12/04 01:45:30;;;;;;;25.95;16.80;;;28.60;91.00;;;;;;5104498;28;20036;-42
2022/12/04 01:48:21;;;;;;;21.42;14.57;;;28.60;91.00;;;;;;5104167;28;20032;-45
2022/12/04 01:50:51;;;;;;;19.35;14.52;;;28.60;91.00;;;;;;5097207;28;20047;-41
2022/12/04 01:53:18;;;;;;;17.55;12.77;;;28.60;91.00;;;;;;5089784;28;20229;-39
2022/12/04 01:55:45;;;;;;;16.52;11.20;;;28.60;91.00;;;;;;5107931;28;20054;-48
2022/12/04 01:58:13;;;;;;;17.25;10.70;;;28.60;91.00;;;;;;5107823;28;20028;-41
2022/12/04 02:00:39;;;;;;;14.73;9.15;;;28.60;91.00;;;;;;5107656;28;20032;-39
2022/12/04 02:03:07;;;;;;;15.50;7.75;;;28.60;91.00;;;;;;5119285;28;20031;-40
2022/12/04 02:05:34;;;;;;;12.35;7.70;;;28.60;91.00;;;;;;5107678;28;20035;-41
2022/12/04 02:08:04;;;;;;;9.07;6.53;;;28.60;91.00;;;;;;5107565;28;20091;-43
2022/12/04 02:11:15;;;;;;;11.85;6.10;;;28.60;91.00;;;;;;5107479;28;20031;-49
2022/12/04 02:13:54;;;;;;;12.25;7.13;;;28.60;91.00;;;;;;5052823;28;20271;-45
2022/12/04 02:16:44;;;;;;;12.00;6.93;;;28.60;90.90;;;;;;5107569;28;20034;-40
2022/12/04 02:19:46;;;;;;;12.95;7.38;;;28.60;90.90;;;;;;5107721;28;20074;-37
2022/12/04 02:22:28;;;;;;;15.38;6.45;;;28.60;91.00;;;;;;5112944;28;20280;-39
2022/12/04 02:25:12;;;;;;;13.48;5.88;;;28.60;91.00;;;;;;5133932;27;20046;-43
2022/12/04 02:27:41;;;;;;;10.23;4.93;;;28.60;91.00;;;;;;5143791;27;20075;-41
2022/12/04 02:30:12;;;;;;;19.67;4.80;;;28.60;91.00;;;;;;5127619;27;20347;-39
2022/12/04 02:32:44;;;;;;;9.57;3.58;;;28.60;91.00;;;;;;5117410;28;20062;-42
2022/12/04 02:35:26;;;;;;;8.27;3.33;;;28.60;91.00;;;;;;5111267;28;20050;-39
2022/12/04 02:38:06;;;;;;;7.43;2.90;;;28.60;91.00;;;;;;5106739;28;20012;-39
2022/12/04 02:41:02;;;;;;;11.60;3.17;;;28.60;91.10;;;;;;5106821;28;20028;-45
2022/12/04 02:44:01;;;;;;;10.63;3.20;;;28.60;90.90;;;;;;5104098;28;20167;-40
2022/12/04 02:46:43;;;;;;;10.95;3.15;;;28.50;90.90;;;;;;5106479;28;20024;-42
2022/12/04 02:49:17;;;;;;;8.82;3.30;;;28.50;90.90;;;;;;5088776;28;20028;-38
2022/12/04 02:51:45;;;;;;;11.15;2.67;;;28.50;90.90;;;;;;5106917;28;20324;-39
2022/12/04 02:54:20;;;;;;;10.50;3.10;;;28.40;90.90;;;;;;5107124;28;20028;-40
2022/12/04 02:56:49;;;;;;;7.63;3.10;;;28.40;90.90;;;;;;5118395;28;20050;-40
2022/12/04 02:59:32;;;;;;;4.68;2.33;;;28.40;90.90;;;;;;5126851;28;20437;-37
2022/12/04 03:02:06;;;;;;;9.13;2.65;;;28.30;90.90;;;;;;5127177;28;20036;-40
2022/12/04 03:04:34;;;;;;;5.20;2.20;;;28.30;91.00;;;;;;5127451;28;20028;-41
2022/12/04 03:07:08;;;;;;;5.30;2.10;;;28.30;91.10;;;;;;5111898;28;20379;-47
2022/12/04 03:09:42;;;;;;;7.97;2.38;;;28.20;91.10;;;;;;5105840;28;20063;-40
2022/12/04 03:12:20;;;;;;;7.47;2.30;;;28.20;91.10;;;;;;5106359;28;20103;-42
2022/12/04 03:15:00;;;;;;;6.82;2.30;;;28.20;91.10;;;;;;5106543;28;20036;-39
2022/12/04 03:17:37;;;;;;;9.55;2.00;;;28.20;91.10;;;;;;5106381;28;20032;-40
2022/12/04 03:20:10;;;;;;;4.03;1.98;;;28.10;91.10;;;;;;5106691;28;20234;-41
2022/12/04 03:22:40;;;;;;;4.47;1.70;;;28.10;91.10;;;;;;5106248;28;20031;-39
2022/12/04 03:25:08;;;;;;;4.97;1.98;;;28.10;91.10;;;;;;5106218;28;20046;-41
2022/12/04 03:28:12;;;;;;;5.13;1.98;;;28.00;91.10;;;;;;5105949;28;20034;-42
2022/12/04 03:30:46;;;;;;;2.80;1.48;;;28.00;91.20;;;;;;5004654;28;20069;-38
2022/12/04 03:33:20;;;;;;;6.40;2.00;;;28.00;91.30;;;;;;5004389;28;20038;-46
2022/12/04 03:36:17;;;;;;;7.88;1.75;;;28.00;91.30;;;;;;5063055;28;20028;-39
2022/12/04 03:38:49;;;;;;;3.47;1.70;;;28.00;91.20;;;;;;5092602;28;20040;-38
2022/12/04 03:41:48;;;;;;;6.93;2.03;;;28.00;91.20;;;;;;5105850;28;20050;-39
2022/12/04 03:44:21;;;;;;;4.70;1.80;;;28.00;91.30;;;;;;5072540;28;20145;-41
2022/12/04 03:47:01;;;;;;;4.32;1.73;;;27.90;91.30;;;;;;5105898;28;20235;-38
2022/12/04 03:49:48;;;;;;;3.70;2.90;;;27.90;91.30;;;;;;5105981;28;20364;-41
2022/12/04 03:52:44;;;;;;;5.90;2.03;;;27.90;91.40;;;;;;5105691;28;20024;-43
2022/12/04 03:55:30;;;;;;;9.60;4.13;;;27.90;91.40;;;;;;5100590;28;20062;-48
2022/12/04 03:58:02;;;;;;;13.95;3.72;;;27.90;91.40;;;;;;5105243;28;20020;-41
2022/12/04 04:00:31;;;;;;;9.20;3.38;;;27.80;91.30;;;;;;5105275;28;20106;-41
2022/12/04 04:03:06;;;;;;;12.98;3.25;;;27.80;91.30;;;;;;5105292;28;20078;-45
2022/12/04 04:05:34;;;;;;;14.60;3.08;;;27.80;91.40;;;;;;5105318;28;20028;-42
2022/12/04 04:10:50;;;;;;;22.00;3.78;;;27.80;91.50;;;;;;5104455;28;20074;-45
2022/12/04 04:24:34;;;;;;;16.02;4.50;;;27.80;91.50;;;;;;5096984;28;20066;-46
2022/12/04 04:27:02;;;;;;;15.55;5.20;;;27.80;91.60;;;;;;5104165;28;20012;-41
2022/12/04 04:29:28;;;;;;;18.00;5.78;;;27.80;91.60;;;;;;5105211;28;20040;-45
2022/12/04 04:32:06;;;;;;;24.40;7.50;;;27.80;91.60;;;;;;5104867;28;20028;-43
2022/12/04 04:35:10;;;;;;;17.90;7.85;;;27.80;91.70;;;;;;5105368;28;20042;-42
2022/12/04 04:37:48;;;;;;;19.58;8.73;;;27.80;91.70;;;;;;5104951;28;20020;-44
2022/12/04 04:40:35;;;;;;;20.02;8.45;;;27.70;91.80;;;;;;5105092;28;20024;-43
2022/12/04 04:43:23;;;;;;;18.38;7.32;;;27.70;91.80;;;;;;5104633;28;20032;-41
2022/12/04 04:46:25;;;;;;;16.90;7.10;;;27.60;91.80;;;;;;5104760;28;20024;-45
2022/12/04 04:48:57;;;;;;;19.17;8.98;;;27.60;91.80;;;;;;5083287;28;20047;-40
2022/12/04 04:51:25;;;;;;;20.50;11.23;;;27.60;91.80;;;;;;5104526;28;20096;-39
2022/12/04 04:53:55;;;;;;;20.75;10.10;;;27.50;91.80;;;;;;5104581;28;20297;-49
2022/12/04 04:56:23;;;;;;;20.75;9.75;;;27.50;91.80;;;;;;5104666;28;20058;-46
2022/12/04 04:58:49;;;;;;;18.35;9.30;;;27.50;91.80;;;;;;5104239;28;20024;-39
2022/12/04 05:01:23;;;;;;;19.95;10.90;;;27.50;91.80;;;;;;5104374;28;20066;-48
2022/12/04 05:03:50;;;;;;;20.63;9.48;;;27.40;91.80;;;;;;5070454;28;20032;-38
2022/12/04 05:06:16;;;;;;;15.55;8.50;;;27.40;91.80;;;;;;5096256;28;20019;-44
2022/12/04 05:08:43;;;;;;;20.45;9.27;;;27.40;91.90;;;;;;5104232;28;20149;-39
2022/12/04 05:11:14;;;;;;;13.43;8.95;;;27.40;91.80;;;;;;5104373;28;20031;-39
2022/12/04 05:13:41;;;;;;;17.60;9.02;;;27.40;91.70;;;;;;5104184;28;20024;-43
2022/12/04 05:16:12;;;;;;;17.30;8.55;;;27.30;91.70;;;;;;5104075;28;20061;-43
2022/12/04 05:18:39;;;;;;;12.95;7.50;;;27.30;91.70;;;;;;5104202;28;20035;-39
2022/12/04 05:21:17;;;;;;;9.48;5.78;;;27.30;91.70;;;;;;5103884;28;20019;-41
2022/12/04 05:23:43;;;;;;;12.00;6.03;;;27.30;91.80;;;;;;5103369;28;20035;-41
2022/12/04 05:26:10;;;;;;;11.07;5.32;;;27.30;91.70;;;;;;5103923;28;20016;-43
2022/12/04 05:28:38;;;;;;;10.93;4.90;;;27.30;91.60;;;;;;5104113;28;20058;-41
2022/12/04 05:31:05;;;;;;;9.20;4.68;;;27.20;91.60;;;;;;5103984;28;20023;-38
2022/12/04 05:33:31;;;;;;;10.02;3.88;;;27.20;91.60;;;;;;5085877;28;20212;-41
2022/12/04 05:36:02;;;;;;;12.23;4.00;;;27.20;91.50;;;;;;5085847;28;20028;-40
2022/12/04 05:38:29;;;;;;;9.70;3.60;;;27.20;91.50;;;;;;5104004;28;20016;-46
2022/12/04 05:40:58;;;;;;;6.88;3.83;;;27.20;91.40;;;;;;5104035;28;20028;-45
2022/12/04 05:43:25;;;;;;;6.28;3.30;;;27.20;91.50;;;;;;5104088;28;20155;-48
2022/12/04 05:45:51;;;;;;;6.85;3.60;;;27.20;91.50;;;;;;5103849;28;20032;-48
2022/12/04 05:48:18;;;;;;;6.45;3.28;;;27.20;91.50;;;;;;5103955;28;20032;-45
2022/12/04 05:50:44;;;;;;;4.97;2.80;;;27.20;91.50;;;;;;5103742;28;20315;-43
2022/12/04 05:53:11;;;;;;;7.18;2.63;;;27.20;91.80;;;;;;5103460;28;20340;-45
2022/12/04 05:55:37;;;;;;;6.97;2.83;;;27.10;91.50;;;;;;5104159;28;20070;-46
2022/12/04 05:58:04;;;;;;;5.15;2.70;;;27.10;91.50;;;;;;5103451;28;20035;-48
2022/12/04 06:00:31;;;;;;;6.20;3.55;;;27.10;91.50;;;;;;5103826;28;20334;-53
2022/12/04 06:02:58;;;;;;;8.93;5.35;;;27.10;91.50;;;;;;5103623;28;20024;-56
2022/12/04 06:05:24;;;;;;;6.35;4.45;;;27.10;91.50;;;;;;5103515;28;20032;-48
2022/12/04 06:07:51;;;;;;;6.95;3.50;;;27.10;91.50;;;;;;5103565;28;20040;-44
2022/12/04 06:10:18;;;;;;;6.03;3.00;;;27.10;91.60;;;;;;5103616;28;20073;-45
2022/12/04 06:12:44;;;;;;;4.47;3.00;;;27.10;91.60;;;;;;5103241;28;20028;-38
2022/12/04 06:15:11;;;;;;;5.32;3.00;;;27.00;91.60;;;;;;5104205;28;20040;-47
2022/12/04 06:17:37;;;;;;;5.93;3.25;;;27.10;91.60;;;;;;5103413;28;20024;-38
2022/12/04 06:20:04;;;;;;;6.88;2.95;;;27.10;91.60;;;;;;5103359;28;20020;-39
2022/12/04 06:22:31;;;;;;;3.75;2.20;;;27.00;91.60;;;;;;5103576;28;20035;-44
2022/12/04 06:24:57;;;;;;;5.60;2.40;;;27.00;91.60;;;;;;5104075;28;20028;-42
2022/12/04 06:27:24;;;;;;;4.95;2.30;;;27.00;91.50;;;;;;5103464;28;20061;-37
2022/12/04 06:29:50;;;;;;;5.35;2.38;;;27.00;91.60;;;;;;5103994;28;20032;-42
2022/12/04 06:32:17;;;;;;;4.75;2.25;;;27.00;91.60;;;;;;5103494;28;20020;-46
2022/12/04 06:34:43;;;;;;;3.95;2.30;;;27.00;91.60;;;;;;5105135;28;20035;-42
2022/12/04 06:37:10;;;;;;;2.70;1.83;;;27.00;91.60;;;;;;5107423;28;20024;-38
2022/12/04 06:39:36;;;;;;;3.38;2.00;;;27.00;91.50;;;;;;5107093;28;20020;-37
2022/12/04 06:42:03;;;;;;;3.65;1.88;;;27.00;91.50;;;;;;5107155;28;20032;-42
2022/12/04 06:44:30;;;;;;;3.40;1.80;;;27.00;91.50;;;;;;5107528;28;20216;-40
2022/12/04 06:46:57;;;;;;;4.45;1.70;;;26.90;91.40;;;;;;5106857;28;20032;-41
2022/12/04 06:49:25;;;;;;;4.63;2.00;;;26.90;91.40;;;;;;5107208;28;20326;-40
2022/12/04 06:51:51;;;;;;;3.58;1.85;;;26.90;91.40;;;;;;5106643;28;20367;-41
2022/12/04 06:54:18;;;;;;;4.05;1.70;;;26.90;91.30;;;;;;5107213;28;20212;-40
2022/12/04 06:56:44;;;;;;;3.80;1.73;;;26.90;91.30;;;;;;5106902;28;20016;-41
2022/12/04 06:59:11;;;;;;;4.53;2.20;;;26.90;91.30;;;;;;5106676;28;20052;-40
2022/12/04 07:01:38;;;;;;;3.45;2.13;;;26.90;91.30;;;;;;5106802;28;20024;-37
2022/12/04 07:04:04;;;;;;;3.33;1.85;;;26.80;91.30;;;;;;5106838;28;20027;-40
2022/12/04 07:06:41;;;;;;;5.65;2.03;;;26.80;91.40;;;;;;5106608;28;20361;-38
2022/12/04 07:09:15;;;;;;;3.00;1.65;;;26.80;91.40;;;;;;5106810;28;20024;-39
2022/12/04 07:11:43;;;;;;;3.05;1.80;;;26.80;91.30;;;;;;5106146;28;20036;-42
2022/12/04 07:14:11;;;;;;;5.72;1.67;;;26.80;91.30;;;;;;5106715;28;20091;-43
2022/12/04 07:16:39;;;;;;;4.60;1.63;;;26.80;91.20;;;;;;5106517;28;20030;-41
2022/12/04 07:19:06;;;;;;;2.42;1.38;;;26.70;91.20;;;;;;5106107;28;20138;-38
2022/12/04 07:21:33;;;;;;;3.85;1.50;;;26.70;91.20;;;;;;5106514;28;20016;-40
2022/12/04 07:24:00;;;;;;;6.75;1.60;;;26.70;91.20;;;;;;5106503;28;20099;-36
2022/12/04 07:26:29;;;;;;;3.08;1.83;;;26.70;91.20;;;;;;5106204;28;20048;-37
2022/12/04 07:28:56;;;;;;;4.25;2.05;;;26.70;91.10;;;;;;5106332;28;20055;-42
2022/12/04 07:31:24;;;;;;;4.32;2.10;;;26.70;91.00;;;;;;5106087;28;20032;-44
2022/12/04 07:33:53;;;;;;;4.63;1.90;;;26.70;91.00;;;;;;5106182;28;20243;-43
2022/12/04 07:36:21;;;;;;;4.55;2.30;;;26.70;91.00;;;;;;5105980;28;20020;-37
2022/12/04 07:38:48;;;;;;;3.03;2.00;;;26.70;91.10;;;;;;5106239;28;20055;-40
2022/12/04 07:41:15;;;;;;;7.15;2.10;;;26.70;91.10;;;;;;5105874;28;20324;-39
2022/12/04 07:43:42;;;;;;;6.00;2.10;;;26.70;91.20;;;;;;5106065;28;20062;-41
2022/12/04 07:46:13;;;;;;;2.97;1.85;;;26.60;91.20;;;;;;5105079;28;20145;-41
2022/12/04 07:48:39;;;;;;;4.35;2.10;;;26.70;91.20;;;;;;5105873;28;20038;-38
2022/12/04 07:51:12;;;;;;;5.78;2.10;;;26.60;91.30;;;;;;5105766;28;20024;-40
2022/12/04 07:53:39;;;;;;;5.88;1.98;;;26.70;91.40;;;;;;5105806;28;20330;-42
2022/12/04 07:56:06;;;;;;;6.07;2.03;;;26.70;91.50;;;;;;5105492;28;20032;-43
2022/12/04 07:58:33;;;;;;;4.47;1.88;;;26.60;91.50;;;;;;5105537;28;20130;-45
2022/12/04 08:01:12;;;;;;;5.97;2.10;;;26.60;91.60;;;;;;5105349;28;20107;-42
2022/12/04 08:03:43;;;;;;;7.40;2.63;;;26.60;91.60;;;;;;5105777;28;20209;-41
2022/12/04 08:06:10;;;;;;;8.73;2.60;;;26.60;91.70;;;;;;5105568;28;20335;-39
2022/12/04 08:08:36;;;;;;;8.23;3.00;;;26.60;91.70;;;;;;5105364;28;20419;-42
2022/12/04 08:11:08;;;;;;;6.38;3.28;;;26.60;91.80;;;;;;5105456;28;20220;-39
2022/12/04 08:13:35;;;;;;;7.97;3.13;;;26.50;91.90;;;;;;5105381;28;20097;-38
2022/12/04 08:16:06;;;;;;;3.80;2.60;;;26.50;91.90;;;;;;5105125;28;20066;-38
2022/12/04 08:18:33;;;;;;;9.60;2.65;;;26.50;92.00;;;;;;5105292;28;20043;-38
2022/12/04 08:21:11;;;;;;;6.07;2.50;;;26.40;92.00;;;;;;5105117;28;20366;-42
2022/12/04 08:23:39;;;;;;;3.88;2.20;;;26.40;92.10;;;;;;5105101;28;20040;-41
2022/12/04 08:26:07;;;;;;;5.28;2.35;;;26.40;92.10;;;;;;5105095;28;20305;-41
2022/12/04 08:28:34;;;;;;;4.95;2.47;;;26.40;92.10;;;;;;5104944;28;20200;-41
2022/12/04 08:31:10;;;;;;;6.28;2.30;;;26.40;92.10;;;;;;5104931;28;20028;-41
2022/12/04 08:33:37;;;;;;;6.47;2.70;;;26.40;92.20;;;;;;5104746;28;20116;-41
2022/12/04 08:36:13;;;;;;;5.90;2.65;;;26.30;92.10;;;;;;5104917;28;20035;-41
2022/12/04 08:38:40;;;;;;;8.30;2.60;;;26.30;92.20;;;;;;5105129;28;20031;-39
2022/12/04 08:41:09;;;;;;;3.90;1.95;;;26.30;92.20;;;;;;5104745;28;20087;-42
2022/12/04 08:43:36;;;;;;;5.47;2.40;;;26.20;92.20;;;;;;5104666;28;20024;-39
2022/12/04 08:46:06;;;;;;;7.97;2.20;;;26.10;92.20;;;;;;5104805;28;20024;-44
2022/12/04 08:48:33;;;;;;;6.80;2.72;;;26.10;92.30;;;;;;5104594;28;20036;-40
2022/12/04 08:51:00;;;;;;;3.97;1.95;;;26.10;92.30;;;;;;5104709;28;20027;-39
2022/12/04 08:53:27;;;;;;;5.65;2.00;;;26.10;92.30;;;;;;5104668;28;20296;-44
2022/12/04 08:55:53;;;;;;;5.38;1.80;;;26.10;92.20;;;;;;5104388;28;20261;-38
2022/12/04 08:58:20;;;;;;;3.53;1.80;;;26.10;92.10;;;;;;5104320;28;20028;-39
2022/12/04 09:00:48;;;;;;;3.83;1.77;;;26.10;92.00;;;;;;5104338;28;20059;-39
2022/12/04 09:03:17;;;;;;;5.03;2.03;;;26.10;91.90;;;;;;5104248;28;20032;-39
2022/12/04 09:05:44;;;;;;;4.38;1.95;;;26.00;91.90;;;;;;5104298;28;20024;-41
2022/12/04 09:08:12;;;;;;;5.07;1.90;;;26.00;91.90;;;;;;5104069;28;20116;-39
2022/12/04 09:10:39;;;;;;;5.25;1.70;;;26.00;91.90;;;;;;5104229;28;20024;-49
2022/12/04 09:13:06;;;;;;;6.28;2.00;;;26.00;91.80;;;;;;5104045;28;20032;-41
2022/12/04 09:15:33;;;;;;;3.55;1.70;;;26.00;91.80;;;;;;5104423;28;20193;-42
2022/12/04 09:17:59;;;;;;;5.68;1.90;;;26.00;91.90;;;;;;5104083;28;20020;-43
2022/12/04 09:20:26;;;;;;;3.08;1.83;;;25.90;91.90;;;;;;5104231;28;20020;-41
2022/12/04 09:22:52;;;;;;;6.60;1.67;;;25.90;91.90;;;;;;5104043;28;20030;-44
2022/12/04 09:25:19;;;;;;;3.05;1.70;;;25.90;91.80;;;;;;5104050;28;20082;-39
2022/12/04 09:27:45;;;;;;;3.55;1.73;;;25.90;91.90;;;;;;5104248;28;20081;-44
2022/12/04 09:30:12;;;;;;;3.72;1.98;;;25.80;91.90;;;;;;5104631;28;20024;-42
2022/12/04 09:32:39;;;;;;;10.93;2.15;;;25.80;91.90;;;;;;5103913;28;20316;-44
2022/12/04 09:35:06;;;;;;;7.15;1.95;;;25.80;92.00;;;;;;5104525;28;20056;-39
2022/12/04 09:37:35;;;;;;;3.08;1.50;;;25.80;92.10;;;;;;5104088;28;20031;-45
2022/12/04 09:40:03;;;;;;;4.70;2.10;;;25.80;92.10;;;;;;5104232;28;20028;-38
2022/12/04 09:42:52;;;;;;;6.50;2.00;;;25.80;92.20;;;;;;5104012;28;20149;-41
2022/12/04 09:45:21;;;;;;;3.95;1.90;;;25.80;92.20;;;;;;5103714;28;20055;-39
2022/12/04 09:47:58;;;;;;;4.25;1.92;;;25.70;92.20;;;;;;5103938;28;20031;-46
2022/12/04 09:50:38;;;;;;;3.55;1.85;;;25.70;92.20;;;;;;5103776;28;20111;-39
2022/12/04 09:53:41;;;;;;;5.88;2.13;;;25.70;92.30;;;;;;5103640;28;20224;-41
2022/12/04 09:56:13;;;;;;;5.80;2.15;;;25.70;92.40;;;;;;5099913;28;20044;-46
2022/12/04 09:59:02;;;;;;;9.88;2.00;;;25.70;92.40;;;;;;5103752;28;20345;-44
2022/12/04 10:01:51;;;;;;;6.13;2.08;;;25.70;92.30;;;;;;5103733;28;20069;-40
2022/12/04 10:04:18;;;;;;;4.20;1.98;;;25.70;92.40;;;;;;5103906;28;20095;-39
2022/12/04 10:06:59;;;;;;;5.82;2.00;;;25.60;92.30;;;;;;5103708;28;20090;-41
2022/12/04 10:09:50;;;;;;;9.35;2.25;;;25.60;92.30;;;;;;5104960;28;20035;-42
2022/12/04 10:12:39;;;;;;;5.90;2.10;;;25.60;92.20;;;;;;5107497;28;20036;-39
2022/12/04 10:15:11;;;;;;;5.85;1.90;;;25.50;92.20;;;;;;5108169;28;20024;-41
2022/12/04 10:18:11;;;;;;;4.85;1.80;;;25.50;92.20;;;;;;5107657;28;20035;-42
2022/12/04 10:20:59;;;;;;;2.70;1.60;;;25.50;92.30;;;;;;5107484;28;20024;-40
2022/12/04 10:23:47;;;;;;;5.70;1.73;;;25.50;92.20;;;;;;5107543;28;20050;-43
2022/12/04 10:26:21;;;;;;;4.18;1.83;;;25.50;92.30;;;;;;5107330;28;20055;-43
2022/12/04 10:28:54;;;;;;;4.43;1.60;;;25.50;92.30;;;;;;5107434;28;20035;-46
2022/12/04 10:31:20;;;;;;;5.68;1.90;;;25.40;92.20;;;;;;5107289;28;20327;-41
2022/12/04 10:33:55;;;;;;;2.15;1.80;;;25.40;92.30;;;;;;5107357;28;20028;-42
2022/12/04 10:36:27;;;;;;;5.90;1.77;;;25.50;92.20;;;;;;5089179;28;20069;-38
2022/12/04 10:38:57;;;;;;;5.97;2.10;;;25.50;92.40;;;;;;5107088;28;20301;-42
2022/12/04 10:41:47;;;;;;;5.78;1.90;;;25.40;92.30;;;;;;5107358;28;20083;-38
2022/12/04 10:44:16;;;;;;;6.88;2.10;;;25.40;92.30;;;;;;5055577;28;20047;-42
2022/12/04 10:46:43;;;;;;;7.65;2.15;;;25.40;92.40;;;;;;5107246;28;20082;-44
2022/12/04 10:49:31;;;;;;;10.02;2.30;;;25.40;92.50;;;;;;5107230;28;20047;-41
2022/12/04 10:51:58;;;;;;;6.38;2.47;;;25.40;92.50;;;;;;5106972;28;20227;-40
2022/12/04 10:54:32;;;;;;;9.23;2.30;;;25.40;92.50;;;;;;5106908;28;20073;-42
2022/12/04 10:57:02;;;;;;;4.53;2.10;;;25.40;92.50;;;;;;5106518;28;20028;-43
2022/12/04 10:59:29;;;;;;;13.00;2.75;;;25.40;92.50;;;;;;5106732;28;20088;-39
2022/12/04 11:02:23;;;;;;;7.75;2.30;;;25.40;92.60;;;;;;5106831;28;20032;-43
2022/12/04 11:05:21;;;;;;;9.85;2.88;;;25.40;92.70;;;;;;5107005;28;20099;-48
2022/12/04 11:07:50;;;;;;;9.93;3.20;;;25.30;92.70;;;;;;5106681;28;20034;-46
2022/12/04 11:10:42;;;;;;;8.20;2.70;;;25.40;92.70;;;;;;5106473;28;20037;-41
2022/12/04 11:13:12;;;;;;;6.93;2.67;;;25.40;92.80;;;;;;5106177;28;20321;-45
2022/12/04 11:16:05;;;;;;;10.77;2.53;;;25.40;92.80;;;;;;5106458;28;20035;-40
2022/12/04 11:18:47;;;;;;;8.40;2.50;;;25.30;92.70;;;;;;5106415;28;20047;-46
2022/12/04 11:21:18;;;;;;;6.80;2.40;;;25.30;92.70;;;;;;5106060;28;20021;-45
2022/12/04 11:23:47;;;;;;;8.40;2.70;;;25.30;92.70;;;;;;5106549;28;20059;-42
2022/12/04 11:26:14;;;;;;;6.07;2.45;;;25.30;92.80;;;;;;5106137;28;20032;-48
2022/12/04 11:28:51;;;;;;;6.38;2.13;;;25.40;92.70;;;;;;5106337;28;20040;-44
2022/12/04 11:31:21;;;;;;;10.13;2.45;;;25.40;92.70;;;;;;5106178;28;20073;-42
2022/12/04 11:34:01;;;;;;;4.55;2.30;;;25.40;92.60;;;;;;5106176;28;20032;-44
2022/12/04 11:36:31;;;;;;;5.95;2.45;;;25.40;92.80;;;;;;5106084;28;20228;-41
2022/12/04 11:39:14;;;;;;;8.32;2.67;;;25.40;92.70;;;;;;5106146;28;20239;-43
2022/12/04 11:41:42;;;;;;;9.68;2.58;;;25.40;92.70;;;;;;5105928;28;20032;-40
2022/12/04 11:44:38;;;;;;;5.90;2.40;;;25.40;92.80;;;;;;5105927;28;20031;-44
2022/12/04 11:47:14;;;;;;;4.97;2.00;;;25.50;92.80;;;;;;5085290;28;20085;-43
2022/12/04 11:49:42;;;;;;;8.65;2.47;;;25.50;92.80;;;;;;5105838;28;20095;-42
2022/12/04 11:52:28;;;;;;;8.02;2.63;;;25.50;92.80;;;;;;5105479;28;20209;-44
2022/12/04 11:55:18;;;;;;;5.82;2.70;;;25.50;92.80;;;;;;5106006;28;20059;-42
2022/12/04 11:57:47;;;;;;;5.35;2.88;;;25.50;92.80;;;;;;5105674;28;20035;-41
2022/12/04 12:00:21;;;;;;;8.52;2.70;;;25.60;92.90;;;;;;5105551;28;20126;-43
2022/12/04 12:03:02;;;;;;;9.98;2.70;;;25.60;92.90;;;;;;5105370;28;20039;-45
2022/12/04 12:05:37;;;;;;;5.90;2.53;;;25.70;92.90;;;;;;5105297;28;20052;-41
2022/12/04 12:08:30;;;;;;;7.18;2.20;;;25.70;92.80;;;;;;5105228;28;20036;-47
2022/12/04 12:11:18;;;;;;;8.75;2.20;;;25.80;92.80;;;;;;5105520;28;20309;-41
2022/12/04 12:14:08;;;;;;;6.90;2.08;;;25.80;92.80;;;;;;5105038;28;20051;-41
2022/12/04 12:16:46;;;;;;;6.15;2.22;;;25.90;92.70;;;;;;5105140;28;20031;-41
2022/12/04 12:19:37;;;;;;;5.63;2.42;;;25.90;92.40;;;;;;5105352;28;20024;-41
2022/12/04 12:22:50;;;;;;;9.13;2.38;;;26.00;92.40;;;;;;5105021;28;20047;-40
2022/12/04 12:25:41;;;;;;;7.50;2.72;;;26.00;92.30;;;;;;5003537;28;20037;-42
2022/12/04 12:28:32;;;;;;;9.05;2.63;;;26.10;92.20;;;;;;5104984;28;20053;-42
2022/12/04 12:31:08;;;;;;;4.93;2.25;;;26.10;92.20;;;;;;5105169;28;20057;-41
2022/12/04 12:33:53;;;;;;;10.85;2.72;;;26.10;92.20;;;;;;5104551;28;20032;-44
2022/12/04 12:36:22;;;;;;;5.32;2.42;;;26.10;92.10;;;;;;5105135;28;20028;-44
2022/12/04 12:38:53;;;;;;;11.35;3.65;;;26.20;92.00;;;;;;5105000;28;20297;-51
2022/12/04 12:41:48;;;;;;;15.20;3.30;;;26.20;92.00;;;;;;5104815;28;20027;-46
2022/12/04 12:44:39;;;;;;;12.18;3.20;;;26.20;91.80;;;;;;5101048;28;20201;-47
2022/12/04 12:47:16;;;;;;;8.80;3.40;;;26.30;91.90;;;;;;5104784;28;20096;-51
2022/12/04 12:50:15;;;;;;;7.22;2.70;;;26.30;91.90;;;;;;5105051;28;20343;-47
2022/12/04 12:52:54;;;;;;;13.18;2.95;;;26.30;91.90;;;;;;5104104;28;20028;-44
2022/12/04 12:55:31;;;;;;;5.70;2.47;;;26.40;91.90;;;;;;5104680;28;20216;-46
2022/12/04 12:58:00;;;;;;;11.25;2.70;;;26.40;91.70;;;;;;5104244;28;20024;-49
2022/12/04 13:00:31;;;;;;;8.23;2.67;;;26.40;91.70;;;;;;5104346;28;20114;-51
2022/12/04 13:03:00;;;;;;;7.28;2.78;;;26.40;91.70;;;;;;5104501;28;20186;-48
2022/12/04 13:06:02;;;;;;;7.25;2.40;;;26.50;91.80;;;;;;5104323;28;20032;-49
2022/12/04 13:08:51;;;;;;;10.35;2.47;;;26.50;91.70;;;;;;5051415;28;20303;-47
2022/12/04 13:11:23;;;;;;;5.28;2.50;;;26.60;91.70;;;;;;5104459;28;20036;-49
2022/12/04 13:13:53;;;;;;;5.65;2.25;;;26.60;91.70;;;;;;5104415;28;20035;-48
2022/12/04 13:16:27;;;;;;;6.82;2.40;;;26.60;91.60;;;;;;5086202;28;20027;-47
2022/12/04 13:19:19;;;;;;;5.40;2.20;;;26.60;91.70;;;;;;5104404;28;20028;-48
2022/12/04 13:21:45;;;;;;;5.60;2.17;;;26.70;91.70;;;;;;5104319;28;20039;-49
2022/12/04 13:24:30;;;;;;;7.72;2.13;;;26.70;91.70;;;;;;5104365;28;20243;-49
2022/12/04 13:27:09;;;;;;;3.75;1.80;;;26.70;91.30;;;;;;5086168;28;20039;-52
2022/12/04 13:29:49;;;;;;;2.92;1.90;;;26.70;91.40;;;;;;5104326;28;20020;-52